Time;durP1;ratioP1;P1;durP2;ratioP2;P2;SDS_P1;SDS_P2;PMS_P1;PMS_P2;Temp;Humidity;BMP_temperature;BMP_pressure;BME280_temperature;BME280_humidity;BME280_pressure;Samples;Min_cycle;Max_cycle;Signal;HPM_P1;HPM_P2
2022/11/19 00:02:21;;;;;;;20.70;10.80;;;;;;;3.51;80.26;98810.02;24468;1342;3050330;-69
2022/11/19 00:04:50;;;;;;;21.50;10.90;;;;;;;3.36;80.78;98815.84;24507;1335;3026128;-66
2022/11/19 00:07:20;;;;;;;24.70;10.90;;;;;;;3.22;81.58;98808.64;24545;1331;3051643;-67
2022/11/19 00:09:48;;;;;;;22.90;11.90;;;;;;;3.07;82.42;98800.77;24515;1327;3025999;-63
2022/11/19 00:15:05;;;;;;;16.10;8.20;;;;;;;2.93;83.70;98785.73;24499;1333;3053591;-65
2022/11/19 00:17:36;;;;;;;14.90;7.10;;;;;;;3.48;82.35;98773.27;24437;1335;3029254;-66
2022/11/19 00:20:06;;;;;;;19.70;9.80;;;;;;;4.01;79.99;98768.89;24477;1326;3026967;-65
2022/11/19 00:22:35;;;;;;;19.40;9.60;;;;;;;4.11;79.41;98765.86;24517;1339;3052873;-64
2022/11/19 00:25:08;;;;;;;24.50;11.50;;;;;;;4.01;79.66;98761.80;24452;1343;3027784;-65
2022/11/19 00:27:37;;;;;;;20.10;10.40;;;;;;;3.67;80.44;98755.14;24507;1336;3027027;-66
2022/11/19 00:30:06;;;;;;;21.60;10.60;;;;;;;3.43;81.38;98751.31;24556;1326;3026592;-64
2022/11/19 00:32:36;;;;;;;20.70;10.80;;;;;;;3.31;82.26;98753.73;24506;1339;3049973;-65
2022/11/19 00:35:05;;;;;;;22.50;10.60;;;;;;;3.21;82.85;98755.02;24487;1334;3026025;-67
2022/11/19 00:37:34;;;;;;;22.50;9.40;;;;;;;3.11;83.21;98753.88;24481;1325;3052780;-63
2022/11/19 00:40:06;;;;;;;19.30;8.60;;;;;;;2.97;84.03;98744.77;24486;1331;3027434;-65
2022/11/19 00:42:35;;;;;;;15.90;7.30;;;;;;;2.89;84.64;98733.51;24530;1333;3052291;-65
2022/11/19 00:45:05;;;;;;;20.90;8.20;;;;;;;3.42;83.67;98727.11;24543;1333;3025909;-64
2022/11/19 00:47:35;;;;;;;19.40;8.30;;;;;;;3.95;81.46;98713.73;24498;1333;3053783;-69
2022/11/19 00:50:04;;;;;;;16.90;8.90;;;;;;;4.05;80.54;98704.79;24524;1325;3028239;-67
2022/11/19 00:52:33;;;;;;;24.50;9.60;;;;;;;3.76;80.89;98698.65;24499;1334;3053623;-65
2022/11/19 00:55:02;;;;;;;17.80;9.30;;;;;;;3.47;81.94;98702.66;24540;1328;3026632;-65
2022/11/19 00:57:32;;;;;;;22.60;9.60;;;;;;;3.38;82.55;98701.67;24509;1333;3057409;-67
2022/11/19 01:00:01;;;;;;;16.80;9.20;;;;;;;3.28;82.96;98705.91;24497;1336;3027010;-64
2022/11/19 01:02:30;;;;;;;16.90;9.10;;;;;;;3.15;83.57;98699.19;24437;1329;3028095;-69
2022/11/19 01:04:59;;;;;;;20.60;10.10;;;;;;;2.97;84.39;98700.83;24468;1335;3056661;-67
2022/11/19 01:07:28;;;;;;;15.30;6.30;;;;;;;2.91;85.04;98696.56;24566;1338;3027064;-67
2022/11/19 01:09:57;;;;;;;14.10;7.10;;;;;;;3.32;84.52;98677.17;24495;1333;3049525;-65
2022/11/19 01:12:26;;;;;;;15.90;8.30;;;;;;;3.87;82.11;98649.11;24468;1341;3028262;-65
2022/11/19 01:14:55;;;;;;;19.40;7.90;;;;;;;3.85;81.41;98650.90;24497;1332;3029137;-64
2022/11/19 01:17:25;;;;;;;24.80;8.90;;;;;;;3.62;82.26;98641.21;24513;1341;3049793;-66
2022/11/19 01:19:55;;;;;;;24.80;8.70;;;;;;;3.58;82.44;98634.99;24470;1335;3027472;-65
2022/11/19 01:22:24;;;;;;;18.50;8.70;;;;;;;3.33;83.23;98647.55;24473;1334;3068000;-67
2022/11/19 01:24:54;;;;;;;23.50;9.10;;;;;;;3.12;84.20;98648.64;24565;1333;3026250;-65
2022/11/19 01:27:22;;;;;;;25.20;9.30;;;;;;;3.18;84.46;98644.58;24496;1332;3027342;-65
2022/11/19 01:29:51;;;;;;;18.70;7.40;;;;;;;3.02;85.22;98642.64;24444;1332;3069260;-65
2022/11/19 01:32:20;;;;;;;13.50;5.70;;;;;;;3.45;85.01;98632.80;24530;1331;3027855;-64
2022/11/19 01:34:52;;;;;;;19.00;7.50;;;;;;;4.02;82.31;98622.96;24464;1339;3048801;-66
2022/11/19 01:37:21;;;;;;;17.20;7.20;;;;;;;3.96;81.90;98624.41;24486;1328;3028935;-64
2022/11/19 01:39:50;;;;;;;17.90;7.80;;;;;;;3.64;82.61;98607.38;24543;1338;3026105;-65
2022/11/19 01:45:21;;;;;;;18.80;8.10;;;;;;;3.38;84.18;98600.91;24482;1328;3069374;-66
2022/11/19 01:47:55;;;;;;;19.20;8.10;;;;;;;3.19;84.97;98605.73;24423;1333;3028831;-66
2022/11/19 01:50:24;;;;;;;16.80;7.90;;;;;;;3.07;85.70;98594.66;24403;1335;3057631;-64
2022/11/19 01:52:53;;;;;;;18.50;6.90;;;;;;;3.06;86.43;98585.37;24451;1327;3027673;-65
2022/11/19 01:55:22;;;;;;;10.80;5.90;;;;;;;3.52;85.61;98580.02;24439;1340;3049541;-61
2022/11/19 01:57:57;;;;;;;17.60;5.90;;;;;;;4.08;83.22;98555.95;24444;1333;3030284;-66
2022/11/19 02:00:27;;;;;;;13.20;6.20;;;;;;;4.02;82.30;98548.92;24465;1335;3052952;-64
2022/11/19 02:02:56;;;;;;;22.40;7.40;;;;;;;3.93;82.76;98540.70;24457;1328;3026276;-65
2022/11/19 02:05:25;;;;;;;20.80;7.20;;;;;;;3.73;83.36;98523.14;24481;1336;3056090;-67
2022/11/19 02:08:43;;;;;;;17.10;7.40;;;;;;;3.51;84.27;98523.28;24495;1342;3052081;-70
2022/11/19 02:11:24;;;;;;;18.90;6.90;;;;;;;3.24;85.70;98523.16;24485;1335;3053584;-68
2022/11/19 02:14:01;;;;;;;12.80;5.90;;;;;;;3.18;86.06;98536.58;24518;1337;3051728;-67
2022/11/19 02:16:33;;;;;;;13.50;4.00;;;;;;;3.01;87.21;98549.07;24472;1333;3052243;-69
2022/11/19 02:19:26;;;;;;;10.20;3.90;;;;;;;3.48;86.73;98547.50;24453;1333;3027889;-67
2022/11/19 02:22:24;;;;;;;10.60;4.70;;;;;;;3.85;85.00;98537.80;24470;1332;3070465;-66
2022/11/19 02:24:53;;;;;;;10.10;5.50;;;;;;;3.80;84.56;98539.44;24512;1334;3051304;-63
2022/11/19 02:27:57;;;;;;;10.50;5.80;;;;;;;3.62;85.25;98532.64;24463;1339;3027190;-64
2022/11/19 02:30:29;;;;;;;7.50;4.70;;;;;;;3.50;86.15;98544.45;24444;1332;3053317;-68
2022/11/19 02:33:09;;;;;;;9.60;6.30;;;;;;;3.39;86.63;98545.99;24436;1337;3027485;-62
2022/11/19 02:35:52;;;;;;;7.90;4.90;;;;;;;3.24;87.41;98539.08;24427;1331;3052176;-65
2022/11/19 02:38:28;;;;;;;6.30;3.20;;;;;;;3.20;88.15;98536.84;24512;1333;3052319;-68
2022/11/19 02:41:33;;;;;;;7.20;4.60;;;;;;;3.83;86.51;98511.73;24472;1338;3049872;-65
2022/11/19 02:46:54;;;;;;;13.70;5.10;;;;;;;4.18;83.91;98485.79;24461;1333;3049742;-64
2022/11/19 02:49:25;;;;;;;11.80;4.70;;;;;;;4.04;84.32;98481.79;24437;1332;3029160;-64
2022/11/19 02:51:54;;;;;;;12.60;4.90;;;;;;;3.89;85.00;98478.86;24542;1339;3070154;-66
2022/11/19 02:54:25;;;;;;;11.80;4.50;;;;;;;3.76;85.68;98480.39;24484;1324;3028444;-67
2022/11/19 02:56:57;;;;;;;9.10;4.80;;;;;;;3.63;86.34;98477.73;24439;1342;3049572;-65
2022/11/19 03:05:46;;;;;;;11.10;3.60;;;;;;;4.43;83.93;98448.25;24470;1332;3056760;-65
2022/11/19 03:08:15;;;;;;;7.30;3.40;;;;;;;4.33;83.84;98437.84;24508;1338;3025799;-64
2022/11/19 03:11:10;;;;;;;5.00;3.00;;;;;;;4.20;84.02;98434.71;24423;1330;3026659;-64
2022/11/19 03:16:58;;;;;;;8.10;2.80;;;;;;;3.77;85.67;98459.88;24448;1327;3052818;-65
2022/11/19 03:19:36;;;;;;;10.90;3.30;;;;;;;3.67;86.65;98452.55;24430;1339;3053704;-63
2022/11/19 03:22:31;;;;;;;6.20;3.10;;;;;;;3.66;86.88;98455.41;24440;1333;3053503;-66
2022/11/19 03:25:09;;;;;;;7.10;2.00;;;;;;;4.47;85.20;98447.71;24443;1341;3053981;-66
2022/11/19 03:27:46;;;;;;;4.80;2.90;;;;;;;4.72;82.54;98433.41;24504;1333;3048862;-66
2022/11/19 03:30:16;;;;;;;5.70;2.60;;;;;;;4.53;82.71;98422.60;24496;1331;3067918;-67
2022/11/19 03:32:58;;;;;;;6.10;2.80;;;;;;;4.44;83.25;98423.95;24456;1343;3025728;-66
2022/11/19 03:35:33;;;;;;;8.00;3.20;;;;;;;4.29;84.17;98425.20;24500;1332;3058040;-67
2022/11/19 03:38:04;;;;;;;3.70;2.70;;;;;;;4.16;84.78;98420.02;24385;1341;3053810;-66
2022/11/19 03:40:33;;;;;;;4.90;2.90;;;;;;;4.10;85.44;98412.83;24462;1334;3026840;-66
2022/11/19 03:43:03;;;;;;;3.80;2.00;;;;;;;4.05;86.13;98421.42;24469;1336;3029292;-64
2022/11/19 03:45:37;;;;;;;2.90;1.70;;;;;;;4.53;85.18;98414.11;24511;1333;3053646;-65
2022/11/19 03:48:06;;;;;;;2.30;1.70;;;;;;;5.09;82.89;98400.73;24490;1320;3026923;-68
2022/11/19 03:51:00;;;;;;;4.30;2.80;;;;;;;5.22;81.83;98398.08;24419;1342;3029008;-67
2022/11/19 03:53:29;;;;;;;2.10;1.70;;;;;;;4.83;82.62;98388.08;23967;1339;4318604;-66
2022/11/19 03:56:03;;;;;;;3.00;1.90;;;;;;;4.69;83.73;98402.51;24632;1336;3052171;-71
2022/11/19 03:58:40;;;;;;;3.30;2.20;;;;;;;4.61;83.93;98397.57;24642;1335;3053063;-67
2022/11/19 04:01:09;;;;;;;2.90;2.40;;;;;;;4.46;84.59;98400.63;24527;1320;3053767;-68
2022/11/19 04:03:38;;;;;;;4.10;2.40;;;;;;;4.34;85.37;98395.48;24449;1333;3026406;-67
2022/11/19 04:06:08;;;;;;;2.30;1.60;;;;;;;4.22;86.37;98378.61;24504;1335;3051629;-68
2022/11/19 04:08:37;;;;;;;2.90;1.70;;;;;;;4.66;85.93;98372.49;24512;1332;3027000;-65
2022/11/19 04:11:07;;;;;;;3.00;2.50;;;;;;;5.21;83.90;98372.63;24451;1334;3026020;-65
2022/11/19 04:13:36;;;;;;;3.50;2.30;;;;;;;5.30;83.07;98344.70;24475;1333;3052082;-68
2022/11/19 04:16:05;;;;;;;3.00;2.20;;;;;;;5.19;83.29;98341.09;24491;1327;3029363;-68
2022/11/19 04:18:34;;;;;;;3.80;2.60;;;;;;;5.19;83.38;98342.17;24494;1326;3052952;-68
2022/11/19 04:21:04;;;;;;;2.60;2.20;;;;;;;4.89;84.29;98334.96;24471;1318;3028225;-68
2022/11/19 04:23:33;;;;;;;3.30;2.30;;;;;;;4.76;85.47;98332.92;24518;1332;3054083;-68
2022/11/19 04:26:02;;;;;;;2.80;2.10;;;;;;;4.74;85.93;98317.43;24509;1336;3025992;-66
2022/11/19 04:28:31;;;;;;;1.90;1.20;;;;;;;5.14;85.43;98290.19;24484;1326;3057670;-66
2022/11/19 04:31:00;;;;;;;2.50;1.70;;;;;;;5.69;83.48;98280.44;24507;1335;3027387;-69
2022/11/19 04:33:29;;;;;;;2.20;1.70;;;;;;;5.70;82.86;98286.10;24496;1326;3050932;-64
2022/11/19 04:35:57;;;;;;;3.30;2.00;;;;;;;5.49;83.74;98279.52;24498;1333;3026887;-67
2022/11/19 04:38:26;;;;;;;2.40;1.60;;;;;;;5.36;84.51;98280.11;24521;1333;3069148;-64
2022/11/19 04:40:55;;;;;;;3.10;1.70;;;;;;;5.20;85.50;98275.10;24461;1325;3026122;-67
2022/11/19 04:43:24;;;;;;;2.70;1.90;;;;;;;5.07;86.24;98260.93;24516;1333;3049458;-68
2022/11/19 04:45:53;;;;;;;2.40;1.40;;;;;;;5.03;87.27;98259.55;24503;1331;3026327;-63
2022/11/19 04:48:22;;;;;;;2.80;1.20;;;;;;;5.48;86.45;98229.21;24506;1331;3051655;-71
2022/11/19 04:50:51;;;;;;;1.60;1.10;;;;;;;5.98;84.64;98230.71;24528;1336;3025887;-66
2022/11/19 04:53:20;;;;;;;1.90;1.20;;;;;;;6.12;83.76;98242.39;24396;1336;3051200;-66
2022/11/19 04:55:49;;;;;;;3.10;1.00;;;;;;;5.96;84.12;98241.42;24532;1335;3026608;-63
2022/11/19 04:58:18;;;;;;;1.90;1.20;;;;;;;5.80;85.02;98243.11;24412;1339;3051710;-66
2022/11/19 05:00:47;;;;;;;1.20;1.10;;;;;;;5.63;85.88;98247.75;24522;1334;3029129;-69
2022/11/19 05:03:16;;;;;;;1.90;1.20;;;;;;;5.54;86.60;98247.59;24512;1329;3051903;-66
2022/11/19 05:05:46;;;;;;;2.20;1.00;;;;;;;5.43;87.56;98253.45;24541;1331;3025594;-64
2022/11/19 05:08:15;;;;;;;1.50;1.00;;;;;;;5.97;86.54;98243.30;24505;1324;3027869;-67
2022/11/19 05:10:44;;;;;;;1.60;1.20;;;;;;;6.39;84.45;98227.34;24431;1333;3051288;-63
2022/11/19 05:13:14;;;;;;;2.00;1.30;;;;;;;6.31;84.25;98222.96;24456;1332;3027306;-65
2022/11/19 05:15:44;;;;;;;2.00;1.20;;;;;;;6.12;84.62;98220.67;24431;1339;3057162;-66
2022/11/19 05:18:13;;;;;;;2.50;1.70;;;;;;;5.91;85.78;98219.70;24493;1333;3025989;-67
2022/11/19 05:20:42;;;;;;;1.50;1.40;;;;;;;5.81;86.45;98221.51;24498;1331;3029662;-71
2022/11/19 05:23:11;;;;;;;1.60;1.30;;;;;;;5.63;87.51;98215.09;24515;1329;3056378;-68
2022/11/19 05:25:42;;;;;;;2.00;1.20;;;;;;;5.58;88.13;98214.19;24534;1331;3027864;-70
2022/11/19 05:28:11;;;;;;;2.10;1.20;;;;;;;6.05;87.48;98208.20;24522;1335;3025833;-65
2022/11/19 05:30:40;;;;;;;1.80;1.20;;;;;;;6.54;84.96;98186.52;24506;1327;3027717;-66
2022/11/19 05:33:09;;;;;;;2.10;1.50;;;;;;;6.39;84.66;98189.63;24501;1332;3028274;-68
2022/11/19 05:35:40;;;;;;;2.50;1.50;;;;;;;6.22;85.85;98191.75;24553;1333;3055993;-66
2022/11/19 05:38:09;;;;;;;2.40;1.80;;;;;;;6.05;86.76;98200.23;24564;1326;3025821;-69
2022/11/19 05:40:39;;;;;;;3.00;1.70;;;;;;;6.07;87.04;98206.73;24533;1328;3053124;-68
2022/11/19 05:43:08;;;;;;;3.70;2.10;;;;;;;5.91;87.49;98219.98;24557;1327;3027779;-66
2022/11/19 05:45:38;;;;;;;1.80;1.30;;;;;;;5.88;88.49;98218.79;24509;1333;3057924;-65
2022/11/19 05:48:06;;;;;;;1.20;0.90;;;;;;;6.42;87.52;98211.28;24611;1325;3028692;-67
2022/11/19 05:50:36;;;;;;;1.90;0.80;;;;;;;7.02;85.37;98191.77;24554;1326;3051179;-68
2022/11/19 05:53:05;;;;;;;1.40;0.90;;;;;;;6.94;85.16;98183.27;24491;1328;3026676;-66
2022/11/19 05:55:35;;;;;;;1.30;0.80;;;;;;;6.86;85.50;98179.98;24518;1332;3070717;-66
2022/11/19 05:58:04;;;;;;;2.10;1.10;;;;;;;6.73;85.53;98171.76;24423;1333;3026529;-65
2022/11/19 06:00:36;;;;;;;2.80;1.60;;;;;;;6.54;86.24;98172.98;24556;1335;3050675;-67
2022/11/19 06:03:05;;;;;;;3.00;1.90;;;;;;;6.40;86.96;98175.30;24478;1324;3028310;-68
2022/11/19 06:05:34;;;;;;;1.70;1.30;;;;;;;6.31;87.69;98176.73;24413;1339;3053916;-69
2022/11/19 06:08:04;;;;;;;1.80;1.10;;;;;;;6.91;86.55;98167.95;24537;1326;3028752;-66
2022/11/19 06:10:33;;;;;;;1.80;1.30;;;;;;;7.32;84.13;98146.93;24525;1339;3053145;-70
2022/11/19 06:13:02;;;;;;;1.60;1.10;;;;;;;7.29;84.31;98129.04;24533;1327;3030169;-67
2022/11/19 06:15:32;;;;;;;2.30;1.30;;;;;;;7.14;85.16;98128.84;24603;1333;3052168;-70
2022/11/19 06:18:01;;;;;;;2.60;1.40;;;;;;;7.03;86.45;98128.75;24535;1325;3029397;-70
2022/11/19 06:20:31;;;;;;;1.20;0.90;;;;;;;6.79;88.02;98131.88;24484;1327;3053263;-67
2022/11/19 06:23:00;;;;;;;1.60;1.00;;;;;;;6.79;88.98;98131.88;24565;1326;3028835;-67
2022/11/19 06:25:29;;;;;;;0.80;0.60;;;;;;;7.16;88.93;98130.10;24494;1340;3057331;-70
2022/11/19 06:27:58;;;;;;;1.30;0.90;;;;;;;7.59;87.03;98133.95;24585;1333;3027918;-67
2022/11/19 06:30:27;;;;;;;1.30;1.00;;;;;;;7.67;86.56;98148.23;24508;1333;3051775;-64
2022/11/19 06:32:56;;;;;;;2.30;0.80;;;;;;;7.53;87.39;98159.14;24554;1325;3028044;-66
2022/11/19 06:35:25;;;;;;;1.80;0.80;;;;;;;7.36;87.96;98158.30;24473;1333;3068996;-64
2022/11/19 06:37:54;;;;;;;0.90;0.60;;;;;;;7.13;89.67;98153.59;24545;1333;3026498;-68
2022/11/19 06:40:24;;;;;;;0.80;0.50;;;;;;;7.05;91.27;98148.25;24423;1342;3049402;-68
2022/11/19 06:42:53;;;;;;;0.70;0.40;;;;;;;7.54;90.34;98140.04;24462;1326;3028156;-67
2022/11/19 06:45:22;;;;;;;0.90;0.80;;;;;;;8.00;88.01;98138.39;24539;1334;3053155;-66
2022/11/19 06:47:51;;;;;;;1.10;0.70;;;;;;;7.93;87.78;98153.70;24496;1333;3028896;-69
2022/11/19 06:50:21;;;;;;;0.50;0.50;;;;;;;7.71;88.79;98155.79;24505;1339;3052173;-68
2022/11/19 06:52:50;;;;;;;0.70;0.50;;;;;;;7.72;89.58;98150.13;24555;1333;3026416;-73
2022/11/19 06:55:20;;;;;;;0.60;0.50;;;;;;;7.61;90.16;98139.57;24521;1333;3028352;-69
2022/11/19 06:57:49;;;;;;;0.80;0.50;;;;;;;7.46;91.54;98131.21;24543;1326;3026051;-69
2022/11/19 07:00:18;;;;;;;0.80;0.40;;;;;;;8.03;90.92;98125.10;24517;1318;3053422;-71
2022/11/19 07:02:47;;;;;;;0.80;0.50;;;;;;;8.52;88.48;98109.06;24526;1333;3027336;-70
2022/11/19 07:05:16;;;;;;;0.80;0.60;;;;;;;8.69;87.27;98104.32;24547;1333;3050586;-67
2022/11/19 07:07:45;;;;;;;1.00;0.60;;;;;;;8.43;88.23;98108.13;24565;1333;3028621;-68
2022/11/19 07:10:14;;;;;;;1.90;0.70;;;;;;;8.28;89.61;98108.15;24570;1333;3052512;-68
2022/11/19 07:12:44;;;;;;;0.70;0.50;;;;;;;8.18;91.03;98096.34;24505;1326;3025730;-65
2022/11/19 07:15:13;;;;;;;1.50;0.80;;;;;;;8.56;90.47;98082.37;24519;1333;3027348;-66
2022/11/19 07:17:42;;;;;;;2.50;1.60;;;;;;;8.92;89.13;98073.27;24533;1333;3054209;-66
2022/11/19 07:20:13;;;;;;;2.00;0.80;;;;;;;9.05;88.55;98071.59;24515;1327;3028590;-68
2022/11/19 07:22:44;;;;;;;0.80;0.50;;;;;;;9.03;88.87;98068.80;24562;1333;3027015;-68
2022/11/19 07:25:19;;;;;;;1.00;0.70;;;;;;;8.79;90.42;98085.42;24596;1333;3048985;-68
2022/11/19 07:27:48;;;;;;;1.10;0.40;;;;;;;8.71;91.59;98085.11;24550;1339;3027395;-64
2022/11/19 07:30:21;;;;;;;3.80;0.70;;;;;;;9.27;90.54;98077.95;24514;1333;3026712;-65
2022/11/19 07:32:52;;;;;;;0.70;0.40;;;;;;;9.66;88.50;98063.73;24539;1333;3027325;-69
2022/11/19 07:35:21;;;;;;;1.30;0.70;;;;;;;9.51;89.11;98057.71;24502;1333;3028741;-67
2022/11/19 07:38:16;;;;;;;1.00;0.60;;;;;;;9.38;90.09;98048.98;24428;1333;3054330;-68
2022/11/19 07:40:55;;;;;;;1.40;0.60;;;;;;;9.22;90.99;98054.40;24547;1333;3027186;-66
2022/11/19 07:43:25;;;;;;;1.10;0.30;;;;;;;9.23;91.57;98047.10;24488;1336;3054283;-65
2022/11/19 07:45:54;;;;;;;0.70;0.40;;;;;;;9.69;90.78;98042.47;24513;1333;3026394;-69
2022/11/19 07:48:23;;;;;;;1.70;0.50;;;;;;;10.09;88.65;98036.66;24473;1326;3051633;-64
2022/11/19 07:50:53;;;;;;;1.70;0.70;;;;;;;10.09;88.59;98035.95;24565;1333;3025844;-73
2022/11/19 07:53:22;;;;;;;1.40;0.80;;;;;;;9.98;89.23;98042.61;24543;1325;3026438;-65
2022/11/19 07:55:51;;;;;;;2.30;0.70;;;;;;;9.83;89.81;98028.25;24500;1329;3029769;-67
2022/11/19 07:58:45;;;;;;;0.30;0.30;;;;;;;9.70;91.91;98021.41;24536;1334;3052176;-72
2022/11/19 08:01:18;;;;;;;1.90;0.70;;;;;;;10.33;90.95;98024.73;24538;1333;3027224;-66
2022/11/19 08:03:48;;;;;;;;;;;;;;;10.64;89.11;98017.34;24483;1334;3052748;-68
2022/11/19 08:06:17;;;;;;;2.30;1.00;;;;;;;10.65;88.63;98013.91;24534;1318;3027718;-72
2022/11/19 08:08:46;;;;;;;2.60;1.40;;;;;;;10.32;90.41;98023.76;24531;1333;3028382;-64
2022/11/19 08:11:18;;;;;;;4.00;1.60;;;;;;;10.34;91.20;98018.93;24577;1329;3027821;-69
2022/11/19 08:13:47;;;;;;;3.10;1.10;;;;;;;10.23;92.64;98023.32;24468;1333;3027521;-68
2022/11/19 08:18:11;;;;;;;3.20;1.60;;;;;;;10.70;92.19;98029.59;24549;1333;3028372;-69
2022/11/19 08:19:09;;;;;;;4.00;1.90;;;;;;;11.32;88.57;98012.95;24506;1333;3069090;-69
2022/11/19 08:21:42;;;;;;;3.90;1.90;;;;;;;11.17;88.79;98024.05;24506;1325;3050679;-66
2022/11/19 08:24:12;;;;;;;3.50;1.80;;;;;;;10.94;90.16;98029.14;24536;1341;3026257;-69
2022/11/19 08:26:44;;;;;;;3.80;2.00;;;;;;;10.93;91.25;98033.96;24471;1333;3026252;-67
2022/11/19 08:29:14;;;;;;;5.90;2.20;;;;;;;10.76;92.49;98036.75;24545;1333;3029464;-67
2022/11/19 08:31:45;;;;;;;5.00;1.90;;;;;;;11.25;92.39;98030.00;24504;1327;3027375;-67
2022/11/19 08:34:14;;;;;;;3.60;1.70;;;;;;;11.68;90.21;98021.07;24565;1327;3026443;-67
2022/11/19 08:36:46;;;;;;;5.30;2.50;;;;;;;11.53;90.49;98020.43;24515;1340;3028141;-74
2022/11/19 08:39:15;;;;;;;6.70;3.70;;;;;;;11.43;91.56;98027.38;24504;1326;3025821;-70
2022/11/19 08:44:31;;;;;;;10.00;3.80;;;;;;;11.28;94.20;98019.94;24573;1326;3049613;-70
2022/11/19 08:47:00;;;;;;;7.40;3.70;;;;;;;11.81;93.84;98015.36;24573;1333;3026225;-68
2022/11/19 08:49:29;;;;;;;9.70;4.50;;;;;;;11.95;92.41;98016.76;24520;1333;3052358;-67
2022/11/19 08:51:58;;;;;;;10.30;5.20;;;;;;;12.08;92.68;98014.72;24491;1329;3025951;-66
2022/11/19 08:54:28;;;;;;;10.40;4.90;;;;;;;12.18;91.52;98008.77;24516;1343;3052106;-68
2022/11/19 08:56:57;;;;;;;9.60;5.20;;;;;;;11.94;92.96;98009.84;24511;1333;3026030;-69
2022/11/19 08:59:25;;;;;;;4.80;2.60;;;;;;;11.78;94.31;98010.90;24525;1327;3052090;-66
2022/11/19 09:01:54;;;;;;;5.60;3.30;;;;;;;12.36;93.01;98006.75;24532;1335;3027678;-69
2022/11/19 09:04:26;;;;;;;9.90;3.70;;;;;;;12.43;91.27;98004.70;24595;1326;3052314;-66
2022/11/19 09:06:56;;;;;;;8.50;4.20;;;;;;;12.47;91.49;98011.05;24644;1329;3028342;-66
2022/11/19 09:09:26;;;;;;;8.40;4.00;;;;;;;12.25;91.63;98013.59;24569;1318;3026745;-67
2022/11/19 09:11:54;;;;;;;9.00;4.30;;;;;;;12.17;93.33;98006.52;24566;1326;3053486;-72
2022/11/19 09:14:24;;;;;;;5.90;3.00;;;;;;;12.16;93.29;98009.92;24535;1328;3027411;-69
2022/11/19 09:17:22;;;;;;;8.00;3.00;;;;;;;12.44;92.67;98006.92;24577;1335;3055994;-65
2022/11/19 09:19:54;;;;;;;7.00;3.60;;;;;;;12.76;91.71;97997.48;24553;1328;3027521;-67
2022/11/19 09:22:23;;;;;;;8.30;4.40;;;;;;;12.72;91.19;97996.77;24586;1326;3027281;-69
2022/11/19 09:25:17;;;;;;;9.30;4.00;;;;;;;12.45;92.89;98007.36;24540;1336;3058752;-71
2022/11/19 09:27:47;;;;;;;7.70;2.50;;;;;;;12.32;94.28;98009.73;24510;1333;3027731;-67
2022/11/19 09:30:16;;;;;;;6.10;3.20;;;;;;;12.69;93.48;98001.33;24517;1329;3027495;-70
2022/11/19 09:32:47;;;;;;;8.50;4.20;;;;;;;13.15;90.89;97995.76;24600;1333;3058122;-67
2022/11/19 09:35:18;;;;;;;11.80;5.10;;;;;;;13.03;90.59;97999.56;24545;1333;3029955;-68
2022/11/19 09:37:47;;;;;;;12.20;5.10;;;;;;;12.96;91.17;98004.05;24518;1335;3028663;-69
2022/11/19 09:40:18;;;;;;;16.80;5.20;;;;;;;12.76;92.28;98008.15;24509;1329;3055961;-67
2022/11/19 09:43:39;;;;;;;9.70;3.10;;;;;;;12.65;94.01;98007.43;24479;1333;3027558;-71
2022/11/19 09:46:15;;;;;;;11.70;3.40;;;;;;;13.28;91.11;98008.15;24484;1335;3054646;-67
2022/11/19 09:48:45;;;;;;;12.80;4.90;;;;;;;13.38;90.01;98012.47;24498;1337;3052308;-66
2022/11/19 09:51:15;;;;;;;10.20;5.00;;;;;;;13.24;90.50;98013.38;24529;1326;3029023;-71
2022/11/19 09:53:56;;;;;;;11.10;5.10;;;;;;;13.06;91.66;98013.80;24579;1333;3053645;-67
2022/11/19 09:56:39;;;;;;;6.90;2.90;;;;;;;13.07;92.45;98016.45;24501;1336;3053130;-68
2022/11/19 09:59:25;;;;;;;11.80;4.00;;;;;;;13.55;90.47;98016.65;24534;1333;3053730;-69
2022/11/19 10:01:54;;;;;;;15.00;5.30;;;;;;;13.75;88.65;98018.29;24520;1339;3050277;-70
2022/11/19 10:04:25;;;;;;;12.60;5.40;;;;;;;13.70;89.06;98032.83;24484;1335;3027582;-74
2022/11/19 10:07:13;;;;;;;19.70;5.80;;;;;;;13.37;90.10;98048.05;24508;1334;3027251;-73
2022/11/19 10:10:08;;;;;;;15.30;6.60;;;;;;;13.09;91.78;98055.60;24555;1336;3056979;-73
2022/11/19 10:13:25;;;;;;;16.90;4.90;;;;;;;13.15;92.49;98068.97;24529;1326;3052102;-70
2022/11/19 10:16:05;;;;;;;20.90;7.40;;;;;;;13.98;88.02;98060.58;24501;1333;3054548;-70
2022/11/19 10:18:37;;;;;;;15.20;6.70;;;;;;;14.39;85.25;98073.95;24514;1326;3052061;-71
2022/11/19 10:21:29;;;;;;;11.60;5.10;;;;;;;14.16;84.55;98072.33;24521;1328;3026707;-69
2022/11/19 10:24:17;;;;;;;12.40;6.00;;;;;;;13.60;86.95;98089.69;24576;1326;3050876;-68
2022/11/19 10:26:58;;;;;;;15.90;4.90;;;;;;;13.69;87.03;98099.57;24531;1335;3070355;-65
2022/11/19 10:29:28;;;;;;;11.30;4.20;;;;;;;14.05;85.77;98089.61;24477;1336;3050747;-67
2022/11/19 10:32:28;;;;;;;10.80;4.80;;;;;;;14.24;83.25;98088.64;24478;1336;3025819;-66
2022/11/19 10:34:59;;;;;;;10.80;5.30;;;;;;;14.15;82.38;98107.92;24518;1333;3054635;-68
2022/11/19 10:37:32;;;;;;;14.60;5.40;;;;;;;13.99;82.89;98105.36;24596;1333;3025579;-68
2022/11/19 10:40:13;;;;;;;12.30;5.70;;;;;;;13.80;82.72;98107.55;24547;1340;3026628;-68
2022/11/19 10:42:48;;;;;;;10.20;3.80;;;;;;;13.78;83.30;98104.39;24549;1324;3053385;-67
2022/11/19 10:45:28;;;;;;;9.20;4.10;;;;;;;14.38;81.08;98095.77;24551;1333;3051175;-66
2022/11/19 10:48:22;;;;;;;11.00;4.60;;;;;;;14.71;78.59;98114.58;24494;1335;3070108;-64
2022/11/19 10:50:51;;;;;;;8.80;4.40;;;;;;;14.42;77.09;98127.57;24495;1340;3051352;-69
2022/11/19 10:53:28;;;;;;;9.40;4.80;;;;;;;14.27;76.83;98135.74;24565;1328;3029459;-64
2022/11/19 10:56:04;;;;;;;10.10;4.80;;;;;;;13.93;77.09;98127.93;24554;1333;3053655;-64
2022/11/19 10:58:53;;;;;;;7.00;4.40;;;;;;;13.88;76.15;98148.11;24521;1334;3053748;-68
2022/11/19 11:01:25;;;;;;;6.90;4.00;;;;;;;13.78;76.31;98147.89;24559;1328;3051830;-66
2022/11/19 11:04:21;;;;;;;5.60;2.60;;;;;;;13.92;76.18;98159.74;24503;1337;3052090;-67
2022/11/19 11:06:53;;;;;;;7.90;2.70;;;;;;;14.37;75.23;98177.96;24560;1327;3025805;-66
2022/11/19 11:09:33;;;;;;;10.20;3.80;;;;;;;15.03;72.70;98173.46;24504;1324;3028853;-68
2022/11/19 11:15:20;;;;;;;5.40;2.50;;;;;;;14.11;71.61;98208.66;24571;1339;3056252;-65
2022/11/19 11:18:08;;;;;;;5.20;2.30;;;;;;;14.14;69.80;98230.33;24576;1339;3051859;-64
2022/11/19 11:21:01;;;;;;;4.70;3.00;;;;;;;13.77;70.65;98234.28;24486;1335;3053010;-64
2022/11/19 11:23:31;;;;;;;5.10;1.90;;;;;;;13.73;71.59;98233.98;24445;1336;3026784;-65
2022/11/19 11:26:08;;;;;;;3.60;2.10;;;;;;;13.59;72.29;98258.40;24517;1336;3026252;-65
2022/11/19 11:29:04;;;;;;;5.50;2.60;;;;;;;13.45;72.66;98276.32;24468;1319;3053581;-64
2022/11/19 11:31:36;;;;;;;7.20;2.40;;;;;;;13.20;73.03;98277.98;24489;1336;3053003;-65
2022/11/19 11:34:13;;;;;;;4.80;2.10;;;;;;;13.04;71.91;98282.55;24475;1337;3025712;-62
2022/11/19 11:36:43;;;;;;;4.70;2.20;;;;;;;13.09;72.32;98283.23;24461;1329;3047934;-69
2022/11/19 11:39:38;;;;;;;2.80;1.00;;;;;;;12.97;72.76;98328.79;24424;1335;3069528;-65
2022/11/19 11:42:10;;;;;;;4.20;1.60;;;;;;;13.15;73.27;98300.11;24508;1324;3029227;-65
2022/11/19 11:44:51;;;;;;;2.80;1.80;;;;;;;13.58;71.79;98328.75;24534;1333;3029860;-66
2022/11/19 11:47:22;;;;;;;4.50;2.20;;;;;;;13.27;72.08;98334.23;24543;1324;3053583;-64
2022/11/19 11:49:59;;;;;;;3.40;2.30;;;;;;;13.01;72.68;98337.33;24538;1331;3027300;-63
2022/11/19 11:52:54;;;;;;;4.40;2.10;;;;;;;12.53;73.75;98352.27;24492;1334;3051215;-65
2022/11/19 11:55:25;;;;;;;2.40;1.60;;;;;;;12.19;73.58;98393.91;24607;1331;3027602;-64
2022/11/19 11:57:59;;;;;;;5.10;1.70;;;;;;;11.89;73.37;98375.36;24476;1318;3025931;-65
2022/11/19 12:00:36;;;;;;;2.70;1.70;;;;;;;11.32;73.78;98395.23;24539;1323;3051877;-66
2022/11/19 12:03:06;;;;;;;2.90;2.00;;;;;;;11.34;73.45;98401.95;24535;1335;3053004;-64
2022/11/19 12:06:14;;;;;;;2.60;2.00;;;;;;;11.01;73.70;98418.41;24508;1327;3029559;-64
2022/11/19 12:08:56;;;;;;;4.60;1.70;;;;;;;10.67;74.52;98420.18;24448;1333;3068930;-62
2022/11/19 12:12:08;;;;;;;4.30;1.60;;;;;;;10.72;74.44;98413.30;24449;1331;3051222;-63
2022/11/19 12:14:49;;;;;;;2.40;1.30;;;;;;;11.07;74.50;98407.44;24465;1343;3056675;-63